Terminal Aerodrome Forecast
Issued by NWS Sioux Falls, SD

Home | Current Version | Previous Version | Text Only | Print | Product List | Glossary On
Versions: 1 2 3 4 5 6 7 8 9 10 11 12 13 14 15 16
000
FTUS43 KFSD 101100
TAFHON
TAF
KHON 101139Z 1012/1112 14007KT P6SM SCT080
      TEMPO 1012/1014 5SM BR
     FM101500 16015G23KT P6SM SCT060 BKN200
     FM110100 15010KT P6SM SCT050 BKN150=

USA.gov is the U.S. government's official web portal to all federal, state and local government web resources and services.